createdAt,value
2018-03-16T00:01:32.675Z,77.60
2018-03-16T00:04:03.127Z,85.60
2018-03-16T00:06:32.155Z,85.97
2018-03-16T00:09:00.583Z,80.50
2018-03-16T00:11:29.011Z,77.50
2018-03-16T00:13:58.135Z,82.53
2018-03-16T00:16:26.523Z,79.80
2018-03-16T00:18:54.909Z,81.23
2018-03-16T00:21:23.284Z,82.00
2018-03-16T00:23:52.460Z,85.10
2018-03-16T00:26:20.850Z,83.17
2018-03-16T00:28:49.228Z,90.50
2018-03-16T00:31:17.627Z,83.57
2018-03-16T00:33:46.073Z,88.80
2018-03-16T00:36:14.487Z,78.43
2018-03-16T00:38:42.914Z,82.30
2018-03-16T00:41:11.269Z,87.00
2018-03-16T00:43:39.703Z,86.57
2018-03-16T00:46:08.069Z,78.63
2018-03-16T00:48:36.459Z,92.83
2018-03-16T00:51:04.864Z,86.00
2018-03-16T00:53:33.246Z,85.00
2018-03-16T00:56:01.635Z,81.83
2018-03-16T00:58:30.015Z,88.53
2018-03-16T01:00:58.415Z,84.93
2018-03-16T01:03:27.580Z,84.93
2018-03-16T01:05:55.926Z,88.37
2018-03-16T01:08:24.331Z,83.30
2018-03-16T01:10:52.755Z,88.70
2018-03-16T01:13:21.121Z,90.00
2018-03-16T01:15:50.273Z,86.43
2018-03-16T01:18:18.681Z,81.10
2018-03-16T01:20:47.058Z,85.83
2018-03-16T01:23:15.422Z,85.87
2018-03-16T01:25:43.833Z,85.83
2018-03-16T01:28:13.332Z,81.87
2018-03-16T01:30:41.793Z,95.07
2018-03-16T01:33:10.198Z,89.40
2018-03-16T01:35:39.375Z,86.93
2018-03-16T01:38:07.789Z,90.87
2018-03-16T01:40:36.188Z,88.33
2018-03-16T01:43:04.593Z,90.43
2018-03-16T01:45:32.968Z,88.93
2018-03-16T01:48:01.362Z,91.97
2018-03-16T01:50:29.757Z,89.07
2018-03-16T01:53:10.833Z,85.07
2018-03-16T01:55:39.993Z,85.03
2018-03-16T01:58:08.405Z,92.10
2018-03-16T02:00:37.609Z,85.90
2018-03-16T02:03:06.754Z,87.10
2018-03-16T02:05:35.132Z,87.97
2018-03-16T02:08:03.555Z,89.10
2018-03-16T02:10:32.690Z,89.30
2018-03-16T02:13:01.093Z,88.00
2018-03-16T02:15:29.608Z,86.03
2018-03-16T02:17:58.775Z,91.67
2018-03-16T02:20:27.210Z,91.63
2018-03-16T02:22:55.582Z,86.97
2018-03-16T02:25:24.022Z,91.53
2018-03-16T02:27:52.407Z,84.60
2018-03-16T02:30:20.778Z,85.60
2018-03-16T02:32:49.190Z,82.83
2018-03-16T02:35:17.556Z,87.63
2018-03-16T02:37:46.733Z,88.33
2018-03-16T02:40:15.148Z,85.60
2018-03-16T02:42:43.564Z,83.57
2018-03-16T02:45:11.974Z,89.80
2018-03-16T02:47:40.363Z,89.30
2018-03-16T02:50:09.558Z,84.57
2018-03-16T02:52:38.699Z,87.30
2018-03-16T02:55:07.096Z,80.73
2018-03-16T02:57:35.507Z,85.70
2018-03-16T03:00:03.987Z,88.03
2018-03-16T03:02:33.158Z,86.43
2018-03-16T03:05:01.556Z,82.43
2018-03-16T03:07:29.954Z,86.57
2018-03-16T03:09:58.342Z,87.83
2018-03-16T03:12:26.728Z,90.73
2018-03-16T03:14:55.131Z,85.67
2018-03-16T03:17:23.505Z,89.43
2018-03-16T03:19:51.913Z,82.97
2018-03-16T03:22:20.326Z,84.73
2018-03-16T03:24:48.721Z,90.07
2018-03-16T03:27:17.155Z,89.97
2018-03-16T03:29:45.541Z,88.40
2018-03-16T03:32:14.680Z,93.10
2018-03-16T03:34:43.098Z,93.80
2018-03-16T03:37:11.534Z,90.33
2018-03-16T03:39:39.911Z,88.17
2018-03-16T03:42:08.293Z,86.47
2018-03-16T03:44:36.664Z,86.67
2018-03-16T03:47:05.074Z,90.83
2018-03-16T03:49:33.430Z,90.10
2018-03-16T03:52:01.787Z,93.07
2018-03-16T03:54:30.207Z,87.77
2018-03-16T03:56:58.565Z,91.17
2018-03-16T03:59:26.964Z,90.03
2018-03-16T04:01:55.361Z,90.07
2018-03-16T04:04:23.768Z,85.90
2018-03-16T04:06:52.183Z,94.37
2018-03-16T04:09:20.549Z,92.87
2018-03-16T04:11:48.977Z,93.67
2018-03-16T04:14:17.360Z,93.10
2018-03-16T04:16:46.520Z,95.23
2018-03-16T04:19:14.900Z,97.73
2018-03-16T04:21:43.297Z,100.37
2018-03-16T04:24:11.673Z,93.97
2018-03-16T04:26:40.093Z,91.03
2018-03-16T04:29:08.485Z,98.83
2018-03-16T04:31:36.873Z,92.70
2018-03-16T04:34:06.037Z,94.57
2018-03-16T04:36:34.400Z,95.87
2018-03-16T04:39:03.714Z,96.13
2018-03-16T04:41:32.076Z,97.83
2018-03-16T04:44:01.217Z,98.10
2018-03-16T04:46:29.612Z,97.20
2018-03-16T04:48:58.010Z,97.37
2018-03-16T04:51:26.423Z,91.87
2018-03-16T04:53:54.806Z,97.70
2018-03-16T04:56:23.607Z,93.03
2018-03-16T04:58:52.040Z,97.93
2018-03-16T05:01:20.443Z,91.07
2018-03-16T05:03:49.618Z,103.63
2018-03-16T05:06:18.010Z,98.10
2018-03-16T05:08:47.168Z,103.53
2018-03-16T05:11:15.550Z,97.17
2018-03-16T05:13:43.959Z,102.03
2018-03-16T05:16:12.391Z,99.57
2018-03-16T05:18:40.746Z,107.57
2018-03-16T05:21:09.130Z,107.47
2018-03-16T05:23:37.558Z,101.43
2018-03-16T05:26:05.939Z,97.50
2018-03-16T05:28:34.348Z,106.27
2018-03-16T05:31:02.734Z,95.77
2018-03-16T05:33:31.118Z,105.33
2018-03-16T05:35:59.558Z,100.80
2018-03-16T05:38:28.707Z,108.83
2018-03-16T05:40:57.086Z,110.73
2018-03-16T05:43:25.509Z,108.20
2018-03-16T05:45:54.635Z,110.23
2018-03-16T05:48:23.032Z,102.87
2018-03-16T05:50:51.448Z,107.97
2018-03-16T05:53:19.854Z,106.17
2018-03-16T05:55:48.267Z,105.00
2018-03-16T05:58:16.646Z,99.67
2018-03-16T06:00:45.059Z,106.67
2018-03-16T06:03:14.266Z,105.03
2018-03-16T06:05:43.406Z,110.33
2018-03-16T06:08:11.803Z,107.03
2018-03-16T06:10:40.218Z,106.80
2018-03-16T06:13:09.355Z,108.17
2018-03-16T06:15:37.768Z,111.23
2018-03-16T06:18:06.144Z,100.03
2018-03-16T06:20:34.527Z,104.83
2018-03-16T06:23:02.951Z,103.40
2018-03-16T06:25:31.329Z,106.33
2018-03-16T06:27:59.721Z,108.87
2018-03-16T06:30:28.087Z,98.03
2018-03-16T06:32:56.539Z,100.07
2018-03-16T06:35:24.936Z,103.47
2018-03-16T06:37:53.323Z,106.33
2018-03-16T06:40:21.766Z,107.10
2018-03-16T06:42:50.153Z,110.07
2018-03-16T06:45:19.311Z,100.13
2018-03-16T06:47:47.730Z,106.60
2018-03-16T06:50:16.917Z,101.77
2018-03-16T06:52:45.323Z,100.27
2018-03-16T06:55:13.740Z,99.43
2018-03-16T06:57:42.108Z,92.27
2018-03-16T07:00:10.528Z,97.50
2018-03-16T07:02:38.891Z,101.23
2018-03-16T07:05:07.257Z,101.47
2018-03-16T07:07:35.687Z,100.53
2018-03-16T07:10:04.203Z,92.73
2018-03-16T07:12:32.613Z,91.00
2018-03-16T07:15:12.971Z,94.23
2018-03-16T07:17:41.399Z,96.00
2018-03-16T07:20:09.783Z,87.93
2018-03-16T07:22:38.176Z,89.40
2018-03-16T07:25:06.532Z,88.30
2018-03-16T07:27:34.939Z,90.23
2018-03-16T07:30:03.441Z,90.70
2018-03-16T07:32:31.865Z,80.87
2018-03-16T07:35:00.287Z,91.43
2018-03-16T07:37:28.688Z,88.10
2018-03-16T07:39:57.091Z,85.97
2018-03-16T07:42:25.488Z,95.13
2018-03-16T07:44:53.920Z,90.00
2018-03-16T07:47:22.318Z,85.87
2018-03-16T07:49:51.480Z,91.10
2018-03-16T07:52:19.862Z,85.30
2018-03-16T07:54:48.269Z,89.23
2018-03-16T07:57:17.452Z,82.20
2018-03-16T07:59:45.876Z,79.80
2018-03-16T08:02:14.255Z,74.40
2018-03-16T08:04:42.652Z,74.90
2018-03-16T08:07:11.038Z,72.97
2018-03-16T08:09:39.451Z,72.53
2018-03-16T08:12:08.583Z,66.80
2018-03-16T08:14:37.012Z,63.97
2018-03-16T08:17:05.388Z,64.83
2018-03-16T08:19:33.783Z,66.30
2018-03-16T08:22:02.995Z,56.53
2018-03-16T08:24:31.410Z,58.50
2018-03-16T08:26:59.808Z,58.47
2018-03-16T08:29:28.178Z,57.50
2018-03-16T08:31:56.613Z,54.17
2018-03-16T08:34:25.056Z,58.33
2018-03-16T08:36:53.437Z,49.97
2018-03-16T08:39:21.860Z,53.47
2018-03-16T08:41:50.247Z,57.30
2018-03-16T08:44:18.680Z,53.13
2018-03-16T08:46:49.983Z,56.30
2018-03-16T08:49:18.365Z,50.73
2018-03-16T08:51:46.778Z,48.07
2018-03-16T08:54:15.187Z,50.07
2018-03-16T08:56:43.601Z,47.30
2018-03-16T08:59:12.051Z,47.23
2018-03-16T09:01:40.498Z,53.07
2018-03-16T09:04:09.709Z,45.03
2018-03-16T09:06:38.107Z,48.43
2018-03-16T09:09:06.553Z,44.40
2018-03-16T09:11:35.754Z,45.17
2018-03-16T09:14:04.982Z,46.80
2018-03-16T09:16:33.406Z,43.23
2018-03-16T09:19:01.847Z,42.60
2018-03-16T09:21:30.272Z,45.63
2018-03-16T09:23:59.124Z,43.97
2018-03-16T09:26:27.566Z,47.90
2018-03-16T09:28:56.034Z,43.67
2018-03-16T09:31:25.245Z,44.87
2018-03-16T09:33:53.733Z,44.30
2018-03-16T09:36:22.166Z,40.73
2018-03-16T09:38:50.607Z,43.77
2018-03-16T09:41:22.246Z,41.90
2018-03-16T09:43:50.671Z,45.53
2018-03-16T09:46:19.117Z,45.17
2018-03-16T09:48:47.533Z,43.97
2018-03-16T09:51:15.978Z,46.20
2018-03-16T09:53:44.444Z,44.90
2018-03-16T09:56:12.940Z,43.93
2018-03-16T09:58:41.424Z,48.83
2018-03-16T10:01:09.902Z,47.83
2018-03-16T10:03:38.325Z,44.90
2018-03-16T10:06:07.981Z,47.30
2018-03-16T10:08:36.753Z,42.93
2018-03-16T10:11:05.202Z,48.43
2018-03-16T10:13:33.665Z,47.07
2018-03-16T10:16:02.133Z,44.73
2018-03-16T10:18:30.595Z,44.37
2018-03-16T10:20:59.039Z,42.60
2018-03-16T10:23:28.272Z,46.13
2018-03-16T10:25:58.330Z,50.07
2018-03-16T10:28:27.550Z,51.07
2018-03-16T10:30:56.748Z,44.00
2018-03-16T10:33:25.175Z,41.87
2018-03-16T10:35:53.634Z,42.87
2018-03-16T10:38:22.101Z,50.60
2018-03-16T10:40:50.588Z,41.60
2018-03-16T10:43:19.006Z,41.37
2018-03-16T10:45:47.474Z,41.73
2018-03-16T10:48:15.919Z,40.70
2018-03-16T10:50:44.384Z,42.00
2018-03-16T10:53:12.813Z,43.83
2018-03-16T10:55:41.266Z,41.43
2018-03-16T10:58:09.766Z,38.73
2018-03-16T11:00:43.742Z,38.57
2018-03-16T11:03:15.147Z,38.30
2018-03-16T11:05:51.038Z,34.23
2018-03-16T11:08:26.478Z,33.93
2018-03-16T11:11:01.218Z,35.37
2018-03-16T11:13:30.483Z,35.70
2018-03-16T11:15:58.956Z,34.07
2018-03-16T11:18:27.456Z,37.93
2018-03-16T11:20:56.661Z,38.13
2018-03-16T11:23:25.076Z,38.87
2018-03-16T11:25:53.540Z,40.50
2018-03-16T11:28:21.981Z,36.10
2018-03-16T11:30:51.234Z,36.87
2018-03-16T11:33:19.676Z,33.07
2018-03-16T11:35:48.208Z,36.93
2018-03-16T11:38:16.761Z,28.67
2018-03-16T11:40:51.677Z,31.73
2018-03-16T11:43:20.159Z,34.70
2018-03-16T11:45:48.609Z,36.07
2018-03-16T11:48:17.094Z,37.93
2018-03-16T11:50:46.320Z,36.70
2018-03-16T11:53:14.782Z,36.77
2018-03-16T11:55:44.029Z,35.90
2018-03-16T11:58:12.478Z,33.57
2018-03-16T12:00:42.641Z,34.73
2018-03-16T12:03:12.074Z,35.27
2018-03-16T12:05:41.340Z,35.43
2018-03-16T12:08:09.856Z,35.40
2018-03-16T12:10:39.081Z,32.43
2018-03-16T12:13:07.533Z,29.87
2018-03-16T12:15:35.968Z,35.63
2018-03-16T12:18:04.462Z,34.97
2018-03-16T12:20:32.919Z,33.87
2018-03-16T12:23:01.416Z,31.13
2018-03-16T12:25:29.858Z,34.43
2018-03-16T12:27:58.326Z,34.97
2018-03-16T12:30:26.776Z,30.93
2018-03-16T12:32:56.012Z,36.83
2018-03-16T12:35:24.487Z,35.60
2018-03-16T12:37:52.974Z,32.63
2018-03-16T12:40:21.445Z,32.23
2018-03-16T12:42:49.899Z,32.13
2018-03-16T12:45:20.881Z,32.13
2018-03-16T12:47:49.305Z,34.60
2018-03-16T12:50:17.750Z,31.70
2018-03-16T12:52:46.203Z,29.97
2018-03-16T12:55:31.664Z,30.70
2018-03-16T12:58:04.079Z,30.23
2018-03-16T13:00:32.524Z,31.10
2018-03-16T13:03:00.976Z,31.57
2018-03-16T13:05:29.422Z,29.37
2018-03-16T13:07:57.906Z,29.07
2018-03-16T13:10:26.375Z,31.20
2018-03-16T13:12:54.852Z,29.90
2018-03-16T13:15:23.323Z,30.10
2018-03-16T13:17:54.265Z,30.20
2018-03-16T13:20:25.398Z,29.87
2018-03-16T13:22:56.130Z,26.70
2018-03-16T13:25:26.302Z,29.30
2018-03-16T13:27:56.151Z,28.63
2018-03-16T13:30:27.067Z,24.43
2018-03-16T13:32:56.365Z,28.97
2018-03-16T13:35:29.952Z,27.47
2018-03-16T13:38:00.961Z,26.13
2018-03-16T13:40:29.424Z,26.53
2018-03-16T13:42:57.879Z,26.47
2018-03-16T13:45:26.334Z,24.63
2018-03-16T13:47:55.502Z,26.30
2018-03-16T13:50:24.008Z,26.70
2018-03-16T13:52:52.463Z,26.20
2018-03-16T13:55:20.913Z,22.10
2018-03-16T13:57:49.393Z,21.53
2018-03-16T14:00:17.847Z,23.50
2018-03-16T14:02:47.046Z,23.07
2018-03-16T14:05:15.570Z,22.03
2018-03-16T14:07:46.248Z,18.77
2018-03-16T14:10:14.870Z,21.73
2018-03-16T14:12:43.338Z,23.30
2018-03-16T14:15:11.780Z,24.40
2018-03-16T14:17:40.424Z,22.97
2018-03-16T14:20:08.883Z,26.07
2018-03-16T14:22:37.396Z,25.20
2018-03-16T14:25:07.041Z,21.90
2018-03-16T14:27:36.284Z,23.10
2018-03-16T14:30:04.771Z,21.77
2018-03-16T14:32:33.239Z,24.17
2018-03-16T14:35:01.947Z,21.40
2018-03-16T14:37:30.399Z,24.93
2018-03-16T14:39:58.893Z,22.83
2018-03-16T14:42:27.354Z,24.63
2018-03-16T14:44:55.772Z,24.83
2018-03-16T14:47:24.270Z,24.97
2018-03-16T14:49:52.686Z,24.03
2018-03-16T14:52:21.149Z,24.37
2018-03-16T14:54:50.399Z,24.80
2018-03-16T14:57:18.844Z,25.03
2018-03-16T14:59:47.257Z,25.77
2018-03-16T15:02:15.692Z,24.27
2018-03-16T15:04:44.150Z,27.43
2018-03-16T15:07:13.807Z,24.63
2018-03-16T15:09:42.243Z,27.60
2018-03-16T15:12:10.649Z,23.50
2018-03-16T15:14:39.102Z,24.53
2018-03-16T15:17:08.294Z,26.87
2018-03-16T15:19:37.459Z,28.43
2018-03-16T15:22:06.058Z,27.73
2018-03-16T15:24:34.466Z,27.23
2018-03-16T15:27:02.893Z,29.20
2018-03-16T15:29:31.377Z,31.77
2018-03-16T15:31:59.867Z,31.67
2018-03-16T15:34:28.334Z,27.57
2018-03-16T15:36:56.813Z,23.93
2018-03-16T15:39:25.279Z,23.00
2018-03-16T15:41:53.807Z,24.87
2018-03-16T15:44:22.355Z,19.10
2018-03-16T15:46:50.806Z,19.40
2018-03-16T15:49:19.278Z,22.47
2018-03-16T15:51:49.601Z,19.97
2018-03-16T15:54:18.117Z,21.33
2018-03-16T15:56:46.581Z,22.07
2018-03-16T15:59:15.008Z,19.00
2018-03-16T16:01:44.580Z,21.83
2018-03-16T16:04:13.098Z,21.03
2018-03-16T16:06:42.331Z,20.37
2018-03-16T16:09:10.769Z,20.73
2018-03-16T16:11:39.204Z,20.97
2018-03-16T16:14:07.637Z,18.47
2018-03-16T16:16:36.865Z,16.37
2018-03-16T16:19:05.301Z,19.17
2018-03-16T16:21:35.771Z,19.30
2018-03-16T16:24:04.228Z,18.67
2018-03-16T16:26:33.448Z,19.03
2018-03-16T16:29:01.872Z,18.80
2018-03-16T16:31:39.760Z,17.13
2018-03-16T16:34:08.249Z,16.67
2018-03-16T16:36:36.722Z,17.07
2018-03-16T16:39:06.076Z,18.63
2018-03-16T16:41:34.639Z,16.27
2018-03-16T16:44:08.490Z,17.03
2018-03-16T16:46:36.968Z,16.10
2018-03-16T16:49:07.480Z,16.73
2018-03-16T16:51:38.540Z,15.90
2018-03-16T16:54:09.461Z,18.07
2018-03-16T16:56:39.829Z,16.30
2018-03-16T16:59:10.643Z,16.93
2018-03-16T17:01:40.974Z,15.80
2018-03-16T17:04:11.480Z,16.10
2018-03-16T17:06:42.022Z,19.97
2018-03-16T17:09:12.582Z,17.17
2018-03-16T17:11:43.311Z,18.57
2018-03-16T17:14:13.805Z,17.00
2018-03-16T17:16:45.655Z,20.10
2018-03-16T17:19:14.122Z,19.40
2018-03-16T17:21:42.587Z,19.53
2018-03-16T17:24:11.067Z,19.90
2018-03-16T17:26:39.574Z,19.93
2018-03-16T17:29:08.025Z,20.27
2018-03-16T17:31:38.311Z,21.30
2018-03-16T17:34:09.284Z,22.60
2018-03-16T17:36:47.021Z,24.23
2018-03-16T17:39:17.946Z,18.77
2018-03-16T17:41:48.169Z,19.10
2018-03-16T17:44:18.559Z,17.03
2018-03-16T17:46:50.069Z,13.47
2018-03-16T17:49:18.545Z,16.03
2018-03-16T17:51:47.014Z,15.43
2018-03-16T17:54:15.479Z,13.17
2018-03-16T17:56:43.936Z,16.97
2018-03-16T17:59:12.379Z,14.17
2018-03-16T18:01:40.844Z,15.20
2018-03-16T18:04:09.308Z,14.43
2018-03-16T18:06:38.390Z,14.67
2018-03-16T18:09:06.880Z,12.33
2018-03-16T18:11:35.339Z,13.87
2018-03-16T18:14:05.238Z,11.00
2018-03-16T18:16:33.858Z,12.43
2018-03-16T18:19:02.323Z,14.63
2018-03-16T18:21:30.765Z,15.20
2018-03-16T18:23:59.164Z,13.80
2018-03-16T18:26:27.608Z,11.73
2018-03-16T18:28:56.110Z,11.23
2018-03-16T18:31:25.343Z,14.40
2018-03-16T18:33:54.111Z,11.43
2018-03-16T18:36:22.577Z,14.03
2018-03-16T18:38:51.763Z,13.40
2018-03-16T18:41:20.977Z,14.87
2018-03-16T18:43:51.104Z,11.10
2018-03-16T18:46:19.753Z,13.07
2018-03-16T18:48:48.691Z,12.13
2018-03-16T18:51:17.780Z,11.90
2018-03-16T18:53:46.263Z,13.03
2018-03-16T18:56:14.698Z,12.67
2018-03-16T18:58:47.855Z,12.73
2018-03-16T19:01:21.855Z,11.67
2018-03-16T19:03:50.751Z,10.40
2018-03-16T19:06:19.480Z,9.67
2018-03-16T19:08:47.940Z,12.53
2018-03-16T19:11:16.398Z,12.93
2018-03-16T19:13:44.820Z,9.63
2018-03-16T19:16:17.992Z,11.63
2018-03-16T19:18:53.202Z,11.60
2018-03-16T19:21:22.355Z,11.97
2018-03-16T19:23:50.808Z,14.03
2018-03-16T19:26:19.231Z,14.87
2018-03-16T19:28:47.752Z,11.10
2018-03-16T19:31:18.127Z,13.57
2018-03-16T19:33:46.639Z,12.33
2018-03-16T19:36:15.060Z,10.93
2018-03-16T19:38:45.596Z,13.13
2018-03-16T19:41:14.059Z,10.57
2018-03-16T19:43:42.505Z,13.40
2018-03-16T19:46:11.061Z,12.37
2018-03-16T19:48:39.541Z,11.17
2018-03-16T19:51:08.013Z,10.40
2018-03-16T19:53:37.220Z,13.60
2018-03-16T19:56:05.976Z,10.60
2018-03-16T19:58:34.471Z,11.07
2018-03-16T20:01:02.946Z,9.83
2018-03-16T20:03:33.186Z,11.87
2018-03-16T20:06:01.932Z,9.90
2018-03-16T20:08:30.383Z,13.87
2018-03-16T20:11:05.322Z,10.33
2018-03-16T20:13:34.147Z,11.03
2018-03-16T20:16:03.654Z,13.13
2018-03-16T20:18:37.022Z,12.90
2018-03-16T20:21:13.846Z,12.93
2018-03-16T20:23:43.303Z,10.80
2018-03-16T20:26:11.773Z,11.77
2018-03-16T20:28:40.223Z,10.67
2018-03-16T20:31:08.665Z,11.50
2018-03-16T20:33:37.885Z,12.50
2018-03-16T20:36:12.373Z,12.37
2018-03-16T20:38:42.000Z,13.97
2018-03-16T20:41:10.437Z,10.33
2018-03-16T20:43:38.877Z,11.20
2018-03-16T20:46:07.387Z,10.63
2018-03-16T20:48:37.961Z,14.23
2018-03-16T20:51:09.364Z,10.87
2018-03-16T20:53:44.184Z,12.00
2018-03-16T20:56:13.350Z,12.77
2018-03-16T20:58:41.804Z,10.13
2018-03-16T21:01:12.463Z,12.43
2018-03-16T21:03:40.918Z,12.20
2018-03-16T21:06:10.107Z,14.17
2018-03-16T21:08:38.516Z,15.63
2018-03-16T21:11:07.356Z,15.03
2018-03-16T21:13:35.811Z,12.57
2018-03-16T21:16:04.277Z,13.73
2018-03-16T21:18:32.873Z,14.30
2018-03-16T21:21:01.302Z,13.23
2018-03-16T21:23:30.500Z,13.03
2018-03-16T21:25:59.697Z,14.90
2018-03-16T21:28:28.928Z,15.47
2018-03-16T21:30:57.365Z,11.17
2018-03-16T21:33:25.809Z,13.73
2018-03-16T21:35:54.446Z,11.70
2018-03-16T21:38:22.883Z,11.70
2018-03-16T21:40:51.350Z,13.17
2018-03-16T21:43:20.193Z,11.73
2018-03-16T21:45:48.700Z,11.17
2018-03-16T21:48:17.136Z,9.93
2018-03-16T21:50:46.108Z,11.90
2018-03-16T21:53:14.660Z,13.30
2018-03-16T21:55:43.862Z,11.83
2018-03-16T21:58:12.359Z,10.97
2018-03-16T22:00:40.815Z,10.93
2018-03-16T22:03:09.249Z,15.23
2018-03-16T22:05:38.480Z,15.33
2018-03-16T22:08:06.915Z,11.63
2018-03-16T22:10:35.344Z,14.07
2018-03-16T22:13:03.778Z,11.37
2018-03-16T22:15:32.250Z,13.73
2018-03-16T22:18:02.084Z,10.83
2018-03-16T22:20:31.322Z,13.80
2018-03-16T22:22:59.746Z,11.07
2018-03-16T22:25:28.998Z,10.23
2018-03-16T22:27:57.521Z,11.07
2018-03-16T22:30:25.966Z,14.10
2018-03-16T22:32:54.375Z,11.77
2018-03-16T22:35:22.820Z,11.63
2018-03-16T22:37:51.257Z,11.87
2018-03-16T22:40:20.626Z,12.67
2018-03-16T22:42:49.054Z,9.00
2018-03-16T22:45:17.521Z,14.10
2018-03-16T22:47:46.118Z,14.20
2018-03-16T22:50:14.965Z,11.13
2018-03-16T22:52:43.403Z,9.67
2018-03-16T22:55:11.791Z,8.73
2018-03-16T22:57:40.246Z,10.20
2018-03-16T23:00:08.677Z,8.80
2018-03-16T23:02:37.169Z,9.57
2018-03-16T23:05:06.485Z,11.20
2018-03-16T23:07:34.933Z,10.60
2018-03-16T23:10:03.445Z,8.03
2018-03-16T23:12:31.922Z,12.00
2018-03-16T23:15:01.089Z,9.20
2018-03-16T23:17:29.531Z,7.13
2018-03-16T23:19:58.150Z,5.90
2018-03-16T23:22:26.560Z,7.27
2018-03-16T23:24:54.981Z,9.53
2018-03-16T23:27:23.416Z,7.23
2018-03-16T23:29:51.852Z,10.03
2018-03-16T23:32:20.288Z,7.13
2018-03-16T23:34:48.736Z,8.93
2018-03-16T23:37:17.209Z,6.83
2018-03-16T23:39:45.677Z,8.77
2018-03-16T23:42:14.141Z,9.87
2018-03-16T23:44:42.576Z,8.73
2018-03-16T23:47:11.024Z,8.40
2018-03-16T23:49:39.465Z,8.60
2018-03-16T23:52:07.889Z,7.00
2018-03-16T23:54:36.279Z,8.40
2018-03-16T23:57:04.742Z,10.33
2018-03-16T23:59:33.185Z,8.70
